createdAt,value
2024-05-09T00:00:54.238Z,3.72
2024-05-09T00:03:23.556Z,3.53
2024-05-09T00:05:52.776Z,3.63
2024-05-09T00:08:22.867Z,4.13
2024-05-09T00:10:52.200Z,4.55
2024-05-09T00:13:24.063Z,4.53
2024-05-09T00:15:53.242Z,5.65
2024-05-09T00:18:22.520Z,3.40
2024-05-09T00:20:51.873Z,4.18
2024-05-09T00:23:21.233Z,3.83
2024-05-09T00:25:50.495Z,4.18
2024-05-09T00:28:19.736Z,3.53
2024-05-09T00:30:51.441Z,3.60
2024-05-09T00:33:20.871Z,4.43
2024-05-09T00:35:50.232Z,3.35
2024-05-09T00:38:19.621Z,3.28
2024-05-09T00:40:48.879Z,4.38
2024-05-09T00:43:18.105Z,3.47
2024-05-09T00:45:47.307Z,3.72
2024-05-09T00:48:21.320Z,3.08
2024-05-09T00:53:21.120Z,3.40
2024-05-09T00:55:50.558Z,2.90
2024-05-09T00:58:21.552Z,3.40
2024-05-09T01:00:51.449Z,4.38
2024-05-09T01:03:23.751Z,3.95
2024-05-09T01:05:53.222Z,3.60
2024-05-09T01:08:22.527Z,3.63
2024-05-09T01:10:51.823Z,3.22
2024-05-09T01:13:21.122Z,3.28
2024-05-09T01:15:52.953Z,3.47
2024-05-09T01:18:24.946Z,3.13
2024-05-09T01:20:54.215Z,4.05
2024-05-09T01:23:26.042Z,3.72
2024-05-09T01:25:55.203Z,3.67
2024-05-09T01:28:24.396Z,3.45
2024-05-09T01:30:53.541Z,3.30
2024-05-09T01:33:22.858Z,2.90
2024-05-09T01:35:52.112Z,3.85
2024-05-09T01:38:21.902Z,3.88
2024-05-09T01:40:54.092Z,3.80
2024-05-09T01:43:23.740Z,3.42
2024-05-09T01:45:56.015Z,3.25
2024-05-09T01:48:25.307Z,3.70
2024-05-09T01:50:54.498Z,3.22
2024-05-09T01:53:23.740Z,3.60
2024-05-09T01:55:55.626Z,4.88
2024-05-09T01:58:25.289Z,3.53
2024-05-09T02:00:54.586Z,4.10
2024-05-09T02:03:24.197Z,3.10
2024-05-09T02:05:53.467Z,3.35
2024-05-09T02:08:23.164Z,3.35
2024-05-09T02:10:55.121Z,3.30
2024-05-09T02:13:24.584Z,3.33
2024-05-09T02:15:54.923Z,3.72
2024-05-09T02:18:24.398Z,3.38
2024-05-09T02:20:54.902Z,3.53
2024-05-09T02:23:24.129Z,3.13
2024-05-09T02:25:55.988Z,3.33
2024-05-09T02:28:25.207Z,3.47
2024-05-09T02:30:54.433Z,3.45
2024-05-09T02:33:21.286Z,3.53
2024-05-09T02:35:50.704Z,4.03
2024-05-09T02:38:17.350Z,3.75
2024-05-09T02:40:46.594Z,2.97
2024-05-09T02:43:15.773Z,3.33
2024-05-09T02:45:45.001Z,3.45
2024-05-09T02:48:13.162Z,2.92
2024-05-09T02:50:44.373Z,2.97
2024-05-09T02:53:12.120Z,3.33
2024-05-09T02:55:41.624Z,3.25
2024-05-09T02:58:08.410Z,3.72
2024-05-09T03:00:42.184Z,3.90
2024-05-09T03:03:11.446Z,3.35
2024-05-09T03:05:42.986Z,2.92
2024-05-09T03:08:09.974Z,3.42
2024-05-09T03:10:39.849Z,3.53
2024-05-09T03:13:06.902Z,4.78
2024-05-09T03:15:36.144Z,3.53
2024-05-09T03:18:06.243Z,2.97
2024-05-09T03:20:36.901Z,3.10
2024-05-09T03:23:04.509Z,3.05
2024-05-09T03:25:34.443Z,3.63
2024-05-09T03:28:01.640Z,3.50
2024-05-09T03:30:39.716Z,3.53
2024-05-09T03:33:13.632Z,3.60
2024-05-09T03:35:43.771Z,3.92
2024-05-09T03:38:13.125Z,3.50
2024-05-09T03:40:46.871Z,3.10
2024-05-09T03:43:16.182Z,4.90
2024-05-09T03:45:42.756Z,4.07
2024-05-09T03:48:12.244Z,3.40
2024-05-09T03:50:41.927Z,3.67
2024-05-09T03:53:12.542Z,4.43
2024-05-09T03:55:39.287Z,3.53
2024-05-09T03:58:08.819Z,3.60
2024-05-09T04:00:38.668Z,3.40
2024-05-09T04:03:11.563Z,4.43
2024-05-09T04:05:43.780Z,3.08
2024-05-09T04:08:16.037Z,4.00
2024-05-09T04:10:42.784Z,3.35
2024-05-09T04:13:12.326Z,4.57
2024-05-09T04:15:38.952Z,3.65
2024-05-09T04:18:08.381Z,3.63
2024-05-09T04:20:40.535Z,3.67
2024-05-09T04:23:14.209Z,3.53
2024-05-09T04:25:41.859Z,5.13
2024-05-09T04:28:10.988Z,3.83
2024-05-09T04:30:40.446Z,3.88
2024-05-09T04:33:13.237Z,3.63
2024-05-09T04:35:41.903Z,3.88
2024-05-09T04:38:14.934Z,3.53
2024-05-09T04:40:42.209Z,3.70
2024-05-09T04:43:17.109Z,4.00
2024-05-09T04:45:43.760Z,3.28
2024-05-09T04:48:13.175Z,4.00
2024-05-09T04:50:40.464Z,4.10
2024-05-09T04:53:10.900Z,4.13
2024-05-09T04:55:40.961Z,4.53
2024-05-09T04:58:10.636Z,4.15
2024-05-09T05:00:38.862Z,4.38
2024-05-09T05:03:12.716Z,3.85
2024-05-09T05:05:42.076Z,4.70
2024-05-09T05:08:14.103Z,4.03
2024-05-09T05:10:44.054Z,4.38
2024-05-09T05:13:21.216Z,5.05
2024-05-09T05:15:49.388Z,4.18
2024-05-09T05:18:19.368Z,4.30
2024-05-09T05:20:46.548Z,5.00
2024-05-09T05:23:16.768Z,4.32
2024-05-09T05:25:47.831Z,4.95
2024-05-09T05:28:18.931Z,3.92
2024-05-09T05:30:45.644Z,3.92
2024-05-09T05:33:15.964Z,4.10
2024-05-09T05:35:42.868Z,4.22
2024-05-09T05:38:12.752Z,4.30
2024-05-09T05:40:40.534Z,4.13
2024-05-09T05:43:18.469Z,3.85
2024-05-09T05:45:48.371Z,4.00
2024-05-09T05:48:18.747Z,4.13
2024-05-09T05:50:45.808Z,4.32
2024-05-09T05:53:15.694Z,4.25
2024-05-09T05:55:42.422Z,4.63
2024-05-09T05:58:14.922Z,5.38
2024-05-09T06:00:42.398Z,4.05
2024-05-09T06:03:12.808Z,4.38
2024-05-09T06:05:40.703Z,5.85
2024-05-09T06:08:10.877Z,4.57
2024-05-09T06:10:40.248Z,4.80
2024-05-09T06:13:14.466Z,5.03
2024-05-09T06:15:44.189Z,4.43
2024-05-09T06:18:13.605Z,5.78
2024-05-09T06:20:42.235Z,4.45
2024-05-09T06:23:13.387Z,4.72
2024-05-09T06:25:40.385Z,5.05
2024-05-09T06:28:09.613Z,5.50
2024-05-09T06:30:40.400Z,5.80
2024-05-09T06:33:15.837Z,4.55
2024-05-09T06:35:45.275Z,5.90
2024-05-09T06:38:14.653Z,5.85
2024-05-09T06:40:43.672Z,5.47
2024-05-09T06:43:15.074Z,5.50
2024-05-09T06:45:43.276Z,6.03
2024-05-09T06:48:15.837Z,5.05
2024-05-09T06:50:45.213Z,5.63
2024-05-09T06:53:16.427Z,5.65
2024-05-09T06:55:43.153Z,6.40
2024-05-09T06:58:12.313Z,6.10
2024-05-09T07:00:41.130Z,5.50
2024-05-09T07:03:12.900Z,5.97
2024-05-09T07:05:47.377Z,5.40
2024-05-09T07:10:44.505Z,4.50
2024-05-09T07:13:12.134Z,4.70
2024-05-09T07:15:41.489Z,4.72
2024-05-09T07:18:09.703Z,3.97
2024-05-09T07:20:39.262Z,3.97
2024-05-09T07:23:11.354Z,5.40
2024-05-09T07:25:40.756Z,3.83
2024-05-09T07:28:10.207Z,3.97
2024-05-09T07:30:39.364Z,4.63
2024-05-09T07:33:06.204Z,3.83
2024-05-09T07:35:35.656Z,3.50
2024-05-09T07:38:02.453Z,3.75
2024-05-09T07:40:36.783Z,3.30
2024-05-09T07:43:04.353Z,3.67
2024-05-09T07:52:32.428Z,3.40
2024-05-09T07:53:39.594Z,2.60
2024-05-09T07:56:16.015Z,2.40
2024-05-09T07:58:43.524Z,2.67
2024-05-09T08:01:12.886Z,2.60
2024-05-09T08:03:39.976Z,2.45
2024-05-09T08:06:09.244Z,3.33
2024-05-09T08:08:35.888Z,2.50
2024-05-09T08:11:06.320Z,2.63
2024-05-09T08:13:35.597Z,2.95
2024-05-09T08:16:06.256Z,2.35
2024-05-09T08:18:36.214Z,2.55
2024-05-09T08:21:05.493Z,2.88
2024-05-09T08:23:32.071Z,3.25
2024-05-09T08:26:01.950Z,2.03
2024-05-09T08:28:28.608Z,2.88
2024-05-09T08:31:03.161Z,2.38
2024-05-09T08:33:32.249Z,3.40
2024-05-09T08:36:02.440Z,2.42
2024-05-09T08:38:31.958Z,2.20
2024-05-09T08:40:58.597Z,2.50
2024-05-09T08:43:29.195Z,3.25
2024-05-09T08:45:58.794Z,2.53
2024-05-09T08:48:28.390Z,2.28
2024-05-09T08:50:55.190Z,2.00
2024-05-09T08:53:24.821Z,2.17
2024-05-09T08:55:51.465Z,2.20
2024-05-09T08:58:21.459Z,2.20
2024-05-09T09:00:48.423Z,2.40
2024-05-09T09:03:21.207Z,2.25
2024-05-09T09:05:51.818Z,2.22
2024-05-09T09:08:21.248Z,2.42
2024-05-09T09:10:48.617Z,2.03
2024-05-09T09:13:17.918Z,2.90
2024-05-09T09:15:47.459Z,2.40
2024-05-09T09:18:18.282Z,2.67
2024-05-09T09:20:48.089Z,2.47
2024-05-09T09:23:17.480Z,2.47
2024-05-09T09:25:44.008Z,2.35
2024-05-09T09:28:13.393Z,2.63
2024-05-09T09:30:40.453Z,2.58
2024-05-09T09:33:11.515Z,2.45
2024-05-09T09:35:39.206Z,2.40
2024-05-09T09:38:11.977Z,2.15
2024-05-09T09:40:45.113Z,2.50
2024-05-09T09:43:22.085Z,2.58
2024-05-09T09:48:18.953Z,2.20
2024-05-09T09:50:45.662Z,2.55
2024-05-09T09:53:18.655Z,2.45
2024-05-09T09:55:46.180Z,2.25
2024-05-09T10:00:42.268Z,2.20
2024-05-09T10:03:11.734Z,1.98
2024-05-09T10:05:39.871Z,2.83
2024-05-09T10:08:10.991Z,2.20
2024-05-09T10:10:45.208Z,2.63
2024-05-09T10:13:14.508Z,2.03
2024-05-09T10:15:45.656Z,2.45
2024-05-09T10:18:15.473Z,2.13
2024-05-09T10:20:42.653Z,2.47
2024-05-09T10:23:28.137Z,2.30
2024-05-09T10:26:00.644Z,2.20
2024-05-09T10:28:27.378Z,2.10
2024-05-09T10:31:04.573Z,2.47
2024-05-09T10:33:37.854Z,2.15
2024-05-09T10:36:07.366Z,1.77
2024-05-09T10:38:34.277Z,2.30
2024-05-09T10:41:06.166Z,2.60
2024-05-09T10:43:33.366Z,2.20
2024-05-09T10:46:02.633Z,2.13
2024-05-09T10:48:29.351Z,2.33
2024-05-09T10:50:59.102Z,2.10
2024-05-09T10:53:25.678Z,3.28
2024-05-09T10:55:58.829Z,2.00
2024-05-09T10:58:28.437Z,3.22
2024-05-09T11:00:58.112Z,1.95
2024-05-09T11:03:25.864Z,2.17
2024-05-09T11:05:55.487Z,2.10
2024-05-09T11:08:22.653Z,2.15
2024-05-09T11:10:53.287Z,2.17
2024-05-09T11:13:29.206Z,2.50
2024-05-09T11:15:58.497Z,3.40
2024-05-09T11:18:26.741Z,3.00
2024-05-09T11:20:57.932Z,2.10
2024-05-09T11:23:26.204Z,2.33
2024-05-09T11:25:56.064Z,4.45
2024-05-09T11:28:22.950Z,6.43
2024-05-09T11:30:55.321Z,12.30
2024-05-09T11:33:21.988Z,13.98
2024-05-09T11:35:51.220Z,6.28
2024-05-09T11:38:17.909Z,8.40
2024-05-09T11:40:48.783Z,1.92
2024-05-09T11:43:15.559Z,2.42
2024-05-09T11:45:44.867Z,2.45
2024-05-09T11:48:14.268Z,2.22
2024-05-09T11:50:43.591Z,3.72
2024-05-09T11:53:10.261Z,2.03
2024-05-09T11:55:39.379Z,2.30
2024-05-09T11:58:06.042Z,1.83
2024-05-09T12:00:37.466Z,1.80
2024-05-09T12:03:05.558Z,2.20
2024-05-09T12:05:37.996Z,1.92
2024-05-09T12:08:04.987Z,2.55
2024-05-09T12:10:36.116Z,2.95
2024-05-09T12:13:05.703Z,1.85
2024-05-09T12:15:37.840Z,2.20
2024-05-09T12:18:05.969Z,2.13
2024-05-09T12:23:09.477Z,2.05
2024-05-09T12:25:40.360Z,2.13
2024-05-09T12:28:07.859Z,2.00
2024-05-09T12:33:07.420Z,2.38
2024-05-09T12:35:38.148Z,3.10
2024-05-09T12:38:08.028Z,1.85
2024-05-09T12:40:38.886Z,2.30
2024-05-09T12:43:06.456Z,2.03
2024-05-09T12:45:36.109Z,2.25
2024-05-09T12:48:04.592Z,2.00
2024-05-09T12:50:34.776Z,2.88
2024-05-09T12:53:02.564Z,2.40
2024-05-09T12:55:44.574Z,2.20
2024-05-09T12:58:19.880Z,1.80
2024-05-09T13:00:49.433Z,2.00
2024-05-09T13:03:16.904Z,1.52
2024-05-09T13:08:13.223Z,1.85
2024-05-09T13:10:45.057Z,2.70
2024-05-09T13:13:12.170Z,2.15
2024-05-09T13:15:41.637Z,2.05
2024-05-09T13:18:09.372Z,2.50
2024-05-09T13:20:38.893Z,1.70
2024-05-09T13:23:07.030Z,2.42
2024-05-09T13:25:37.916Z,2.65
2024-05-09T13:28:08.126Z,1.80
2024-05-09T13:30:40.823Z,1.98
2024-05-09T13:33:09.324Z,2.20
2024-05-09T13:38:05.536Z,2.42
2024-05-09T13:40:36.333Z,2.05
2024-05-09T13:43:03.577Z,2.75
2024-05-09T13:45:35.724Z,2.17
2024-05-09T13:48:03.705Z,2.05
2024-05-09T13:50:36.174Z,2.05
2024-05-09T13:53:04.754Z,2.17
2024-05-09T13:55:34.242Z,2.10
2024-05-09T13:58:00.986Z,2.25
2024-05-09T14:00:42.127Z,2.65
2024-05-09T14:03:20.678Z,1.88
2024-05-09T14:05:49.362Z,1.90
2024-05-09T14:08:19.961Z,2.50
2024-05-09T14:10:47.534Z,2.25
2024-05-09T14:13:17.296Z,2.00
2024-05-09T14:15:44.086Z,2.50
2024-05-09T14:18:14.324Z,1.83
2024-05-09T14:20:44.010Z,1.92
2024-05-09T14:23:16.334Z,2.20
2024-05-09T14:25:44.062Z,2.13
2024-05-09T14:28:14.629Z,2.25
2024-05-09T14:30:41.603Z,1.90
2024-05-09T14:33:11.206Z,1.83
2024-05-09T14:35:38.770Z,2.08
2024-05-09T14:38:11.623Z,1.90
2024-05-09T14:40:43.001Z,1.80
2024-05-09T14:43:14.524Z,2.47
2024-05-09T14:45:43.477Z,2.10
2024-05-09T14:48:13.144Z,2.80
2024-05-09T14:50:40.865Z,1.98
2024-05-09T14:53:14.236Z,1.65
2024-05-09T14:55:42.619Z,2.38
2024-05-09T14:58:13.490Z,1.73
2024-05-09T15:00:44.753Z,2.25
2024-05-09T15:03:17.691Z,2.20
2024-05-09T15:05:45.119Z,2.10
2024-05-09T15:10:43.577Z,2.30
2024-05-09T15:13:15.532Z,2.10
2024-05-09T15:15:43.426Z,2.10
2024-05-09T15:18:12.716Z,2.10
2024-05-09T15:20:40.997Z,2.10
2024-05-09T15:23:10.375Z,1.67
2024-05-09T15:25:37.220Z,2.22
2024-05-09T15:28:09.855Z,2.22
2024-05-09T15:30:37.061Z,2.28
2024-05-09T15:33:07.619Z,1.75
2024-05-09T15:35:34.707Z,2.17
2024-05-09T15:38:05.047Z,2.03
2024-05-09T15:40:39.202Z,1.92
2024-05-09T15:43:11.312Z,2.15
2024-05-09T15:45:41.607Z,2.22
2024-05-09T15:48:08.808Z,2.70
2024-05-09T15:50:41.357Z,1.90
2024-05-09T15:53:10.085Z,2.15
2024-05-09T15:55:39.774Z,2.15
2024-05-09T15:58:07.208Z,2.22
2024-05-09T16:00:42.380Z,2.00
2024-05-09T16:03:11.512Z,1.80
2024-05-09T16:05:41.853Z,2.08
2024-05-09T16:08:08.795Z,2.58
2024-05-09T16:10:42.391Z,2.05
2024-05-09T16:13:11.165Z,2.10
2024-05-09T16:15:43.125Z,2.10
2024-05-09T16:18:09.842Z,2.05
2024-05-09T16:20:41.731Z,1.83
2024-05-09T16:23:10.649Z,2.13
2024-05-09T16:28:09.900Z,1.95
2024-05-09T16:30:42.741Z,2.25
2024-05-09T16:33:10.911Z,2.10
2024-05-09T16:35:40.509Z,2.20
2024-05-09T16:38:07.382Z,2.10
2024-05-09T16:40:40.066Z,1.80
2024-05-09T16:43:08.605Z,1.77
2024-05-09T16:45:38.453Z,2.65
2024-05-09T16:48:08.395Z,2.00
2024-05-09T16:50:38.016Z,2.63
2024-05-09T16:53:05.869Z,2.25
2024-05-09T16:55:36.222Z,2.00
2024-05-09T16:58:03.520Z,2.25
2024-05-09T17:00:40.425Z,2.00
2024-05-09T17:03:14.146Z,1.95
2024-05-09T17:05:45.705Z,2.05
2024-05-09T17:08:14.818Z,2.00
2024-05-09T17:10:43.954Z,2.28
2024-05-09T17:13:13.808Z,1.85
2024-05-09T17:15:43.385Z,2.05
2024-05-09T17:18:15.236Z,2.35
2024-05-09T17:20:41.920Z,2.15
2024-05-09T17:23:13.377Z,1.77
2024-05-09T17:25:43.973Z,2.92
2024-05-09T17:28:11.045Z,2.40
2024-05-09T17:30:42.135Z,2.03
2024-05-09T17:33:13.119Z,2.42
2024-05-09T17:35:43.348Z,2.90
2024-05-09T17:38:09.976Z,2.67
2024-05-09T17:40:39.783Z,2.30
2024-05-09T17:43:08.552Z,3.03
2024-05-09T17:45:40.843Z,2.20
2024-05-09T17:48:09.411Z,2.35
2024-05-09T17:50:42.188Z,2.47
2024-05-09T17:53:10.177Z,2.17
2024-05-09T17:55:39.410Z,1.98
2024-05-09T17:58:06.182Z,2.42
2024-05-09T18:00:39.606Z,2.40
2024-05-09T18:03:10.695Z,2.10
2024-05-09T18:05:44.261Z,2.00
2024-05-09T18:08:13.913Z,2.05
2024-05-09T18:10:43.467Z,2.53
2024-05-09T18:13:13.702Z,2.22
2024-05-09T18:15:43.823Z,2.30
2024-05-09T18:18:11.088Z,2.17
2024-05-09T18:20:45.657Z,2.15
2024-05-09T18:23:14.206Z,2.22
2024-05-09T18:25:44.354Z,2.10
2024-05-09T18:28:11.018Z,2.22
2024-05-09T18:30:41.126Z,2.63
2024-05-09T18:33:09.294Z,2.35
2024-05-09T18:35:39.733Z,3.13
2024-05-09T18:38:09.034Z,2.35
2024-05-09T18:40:39.520Z,3.15
2024-05-09T18:43:08.908Z,2.30
2024-05-09T18:45:39.194Z,2.50
2024-05-09T18:48:07.550Z,2.53
2024-05-09T18:50:40.057Z,2.42
2024-05-09T18:53:12.065Z,2.28
2024-05-09T18:55:42.421Z,2.50
2024-05-09T18:58:09.241Z,2.20
2024-05-09T19:00:41.316Z,2.20
2024-05-09T19:03:12.868Z,2.35
2024-05-09T19:05:45.233Z,2.20
2024-05-09T19:08:15.790Z,2.35
2024-05-09T19:10:45.335Z,2.42
2024-05-09T19:13:13.886Z,2.30
2024-05-09T19:15:44.503Z,3.05
2024-05-09T19:18:12.509Z,2.50
2024-05-09T19:20:42.110Z,2.65
2024-05-09T19:23:10.736Z,2.83
2024-05-09T19:25:42.650Z,2.85
2024-05-09T19:28:11.887Z,2.83
2024-05-09T19:30:41.705Z,2.90
2024-05-09T19:33:13.505Z,1.95
2024-05-09T19:35:40.759Z,2.25
2024-05-09T19:38:09.996Z,2.47
2024-05-09T19:40:39.253Z,2.83
2024-05-09T19:43:08.627Z,2.22
2024-05-09T19:45:36.498Z,2.35
2024-05-09T19:48:06.755Z,2.35
2024-05-09T19:50:41.271Z,3.40
2024-05-09T19:53:13.544Z,2.63
2024-05-09T19:55:43.015Z,2.67
2024-05-09T19:58:13.124Z,2.40
2024-05-09T20:00:42.371Z,2.50
2024-05-09T20:03:13.935Z,2.53
2024-05-09T20:05:41.771Z,2.50
2024-05-09T20:08:11.023Z,2.90
2024-05-09T20:10:38.056Z,2.30
2024-05-09T20:13:10.103Z,2.30
2024-05-09T20:15:37.765Z,2.40
2024-05-09T20:18:07.831Z,2.45
2024-05-09T20:20:39.304Z,2.55
2024-05-09T20:23:11.648Z,2.45
2024-05-09T20:25:38.432Z,2.53
2024-05-09T20:28:11.247Z,2.35
2024-05-09T20:30:38.222Z,2.72
2024-05-09T20:33:09.472Z,2.40
2024-05-09T20:35:36.685Z,2.33
2024-05-09T20:38:06.093Z,2.45
2024-05-09T20:40:36.734Z,2.53
2024-05-09T20:43:11.298Z,2.40
2024-05-09T20:45:38.119Z,2.28
2024-05-09T20:48:08.349Z,2.13
2024-05-09T20:50:39.212Z,2.83
2024-05-09T20:53:11.463Z,2.47
2024-05-09T20:55:38.595Z,2.38
2024-05-09T20:58:07.836Z,2.45
2024-05-09T21:00:40.818Z,2.05
2024-05-09T21:03:13.883Z,2.17
2024-05-09T21:05:43.543Z,2.10
2024-05-09T21:08:13.010Z,2.28
2024-05-09T21:10:39.660Z,3.35
2024-05-09T21:13:08.870Z,2.22
2024-05-09T21:15:38.190Z,2.10
2024-05-09T21:18:07.671Z,3.25
2024-05-09T21:20:34.948Z,2.15
2024-05-09T21:23:04.506Z,2.45
2024-05-09T21:25:31.221Z,2.63
2024-05-09T21:28:00.581Z,2.20
2024-05-09T21:30:36.809Z,2.63
2024-05-09T21:33:14.248Z,2.28
2024-05-09T21:35:41.819Z,2.42
2024-05-09T21:38:11.125Z,2.28
2024-05-09T21:40:38.484Z,2.25
2024-05-09T21:43:08.697Z,2.30
2024-05-09T21:45:36.015Z,2.42
2024-05-09T21:48:06.194Z,2.90
2024-05-09T21:50:40.949Z,2.72
2024-05-09T21:53:12.523Z,2.33
2024-05-09T21:55:39.860Z,2.65
2024-05-09T21:58:09.121Z,2.20
2024-05-09T22:00:39.217Z,2.10
2024-05-09T22:03:09.944Z,1.88
2024-05-09T22:05:44.294Z,2.45
2024-05-09T22:08:13.887Z,2.45
2024-05-09T22:10:40.561Z,2.72
2024-05-09T22:13:10.335Z,2.17
2024-05-09T22:15:38.856Z,2.40
2024-05-09T22:18:10.354Z,2.33
2024-05-09T22:20:44.847Z,2.67
2024-05-09T22:23:15.463Z,2.20
2024-05-09T22:25:42.292Z,3.50
2024-05-09T22:28:11.475Z,2.45
2024-05-09T22:30:39.929Z,2.35
2024-05-09T22:33:11.247Z,2.05
2024-05-09T22:35:41.535Z,2.30
2024-05-09T22:38:10.765Z,2.38
2024-05-09T22:40:45.622Z,2.30
2024-05-09T22:43:19.659Z,3.35
2024-05-09T22:45:47.136Z,3.15
2024-05-09T22:48:16.468Z,1.90
2024-05-09T22:50:45.762Z,2.60
2024-05-09T22:53:14.887Z,2.58
2024-05-09T22:55:41.603Z,2.22
2024-05-09T22:58:10.957Z,2.97
2024-05-09T23:00:37.713Z,2.28
2024-05-09T23:03:07.039Z,2.58
2024-05-09T23:05:33.687Z,2.40
2024-05-09T23:08:05.644Z,2.38
2024-05-09T23:10:36.430Z,3.55
2024-05-09T23:13:08.432Z,2.95
2024-05-09T23:15:35.884Z,2.53
2024-05-09T23:18:05.369Z,2.35
2024-05-09T23:20:37.454Z,2.08
2024-05-09T23:23:12.236Z,2.55
2024-05-09T23:25:39.056Z,2.70
2024-05-09T23:28:08.578Z,3.85
2024-05-09T23:30:38.956Z,3.45
2024-05-09T23:33:10.580Z,2.30
2024-05-09T23:35:37.366Z,2.35
2024-05-09T23:38:06.722Z,2.47
2024-05-09T23:40:39.616Z,2.38
2024-05-09T23:43:12.494Z,2.25
2024-05-09T23:45:39.654Z,2.40
2024-05-09T23:48:09.395Z,2.22
2024-05-09T23:50:38.360Z,2.20
2024-05-09T23:53:10.159Z,2.08
2024-05-09T23:55:39.961Z,2.38
2024-05-09T23:58:09.802Z,2.30
